Time;durP1;ratioP1;P1;durP2;ratioP2;P2;SDS_P1;SDS_P2;PMS_P1;PMS_P2;Temp;Humidity;BMP_temperature;BMP_pressure;BME280_temperature;BME280_humidity;BME280_pressure;Samples;Min_cycle;Max_cycle;Signal;HPM_P1;HPM_P2
2023/05/03 00:02:06;;;;;;;5.00;2.33;;;;;;;12.14;54.41;100963.47;5021242;28;20214;-86
2023/05/03 00:04:34;;;;;;;5.53;2.10;;;;;;;12.25;54.11;100980.66;5019666;28;20215;-86
2023/05/03 00:07:04;;;;;;;2.97;2.10;;;;;;;12.23;54.07;100973.78;5016920;28;20203;-86
2023/05/03 00:09:35;;;;;;;4.33;1.93;;;;;;;12.24;54.54;100980.66;5014196;28;20218;-86
2023/05/03 00:12:06;;;;;;;5.00;1.83;;;;;;;12.18;54.48;100968.63;5003253;28;20593;-85
2023/05/03 00:14:35;;;;;;;3.40;1.80;;;;;;;12.20;54.12;100977.22;5015794;28;20226;-85
2023/05/03 00:17:04;;;;;;;2.43;1.50;;;;;;;12.30;53.86;100993.56;5015906;28;20673;-85
2023/05/03 00:19:34;;;;;;;2.10;1.73;;;;;;;12.23;53.31;100974.66;5006730;28;20283;-85
2023/05/03 00:22:03;;;;;;;6.70;2.40;;;;;;;12.39;53.19;100988.34;5022620;28;20213;-85
2023/05/03 00:24:32;;;;;;;5.30;2.10;;;;;;;12.37;53.18;100994.38;5021314;28;20195;-83
2023/05/03 00:27:05;;;;;;;4.30;1.87;;;;;;;12.33;52.87;100999.59;5002480;28;20247;-83
2023/05/03 00:29:33;;;;;;;2.57;1.67;;;;;;;12.26;52.66;100987.56;5015184;28;20219;-85
2023/05/03 00:32:05;;;;;;;2.53;1.57;;;;;;;12.18;52.60;100985.84;5019870;28;20207;-85
2023/05/03 00:34:33;;;;;;;3.23;1.57;;;;;;;12.10;52.48;100972.94;5024710;28;20223;-84
2023/05/03 00:37:03;;;;;;;3.10;1.90;;;;;;;12.11;52.43;100960.88;5025197;28;20202;-85
2023/05/03 00:39:31;;;;;;;3.70;1.80;;;;;;;12.16;51.75;100980.69;5013273;28;20204;-85
2023/05/03 00:42:03;;;;;;;4.80;2.17;;;;;;;12.16;51.74;100979.84;5022973;28;20207;-85
2023/05/03 00:44:33;;;;;;;2.23;1.63;;;;;;;11.78;51.62;100931.66;5027214;28;20200;-85
2023/05/03 00:47:03;;;;;;;4.47;1.67;;;;;;;12.05;51.41;100975.56;5024637;28;20195;-85
2023/05/03 00:49:31;;;;;;;2.57;1.70;;;;;;;12.04;51.77;100976.44;5014908;28;20215;-84
2023/05/03 00:52:01;;;;;;;3.50;1.37;;;;;;;12.06;51.72;100969.50;5008381;28;20211;-85
2023/05/03 00:54:31;;;;;;;3.60;1.70;;;;;;;12.09;51.43;100979.00;5024238;28;20237;-85
2023/05/03 00:57:00;;;;;;;1.90;1.40;;;;;;;12.00;51.22;100963.50;5021990;28;20199;-84
2023/05/03 00:59:29;;;;;;;2.30;1.43;;;;;;;12.07;50.87;100986.72;5022102;28;20227;-85
2023/05/03 01:02:05;;;;;;;1.93;1.67;;;;;;;12.02;51.32;100991.06;5007356;28;20226;-84
2023/05/03 01:04:34;;;;;;;4.37;1.60;;;;;;;12.04;51.34;101001.38;5002466;28;20223;-84
2023/05/03 01:07:11;;;;;;;3.97;1.53;;;;;;;12.03;51.42;101000.50;5004828;28;20626;-84
2023/05/03 01:09:46;;;;;;;2.87;1.60;;;;;;;12.01;51.20;101010.00;5022399;28;20218;-85
2023/05/03 01:12:25;;;;;;;1.87;1.30;;;;;;;11.94;51.24;101008.31;5007277;28;20573;-85
2023/05/03 01:15:15;;;;;;;2.47;1.50;;;;;;;11.98;51.22;101010.00;5014145;28;20258;-85
2023/05/03 01:17:50;;;;;;;2.27;1.53;;;;;;;11.94;51.48;101010.03;5018077;28;20262;-84
2023/05/03 01:20:25;;;;;;;3.93;1.70;;;;;;;11.82;51.64;101016.03;5011718;28;20215;-86
2023/05/03 01:23:05;;;;;;;2.93;1.47;;;;;;;11.70;51.76;101008.28;5023297;28;20215;-85
2023/05/03 01:25:35;;;;;;;6.37;1.80;;;;;;;11.65;52.24;101017.75;5014047;28;20247;-84
2023/05/03 01:28:03;;;;;;;3.13;1.90;;;;;;;11.61;52.35;101017.75;5003276;28;20611;-84
2023/05/03 01:30:33;;;;;;;3.57;1.70;;;;;;;11.56;52.09;101023.78;5012714;28;20215;-84
2023/05/03 01:33:10;;;;;;;4.63;1.73;;;;;;;11.48;52.39;101016.03;5014631;28;20208;-85
2023/05/03 01:35:42;;;;;;;3.03;1.70;;;;;;;11.50;52.49;101018.63;5016298;28;20674;-84
2023/05/03 01:38:12;;;;;;;2.13;1.87;;;;;;;11.44;52.07;101019.47;5004976;28;20216;-84
2023/05/03 01:40:45;;;;;;;2.37;1.83;;;;;;;11.42;52.53;101023.78;5023432;28;20238;-85
2023/05/03 01:43:15;;;;;;;3.67;1.77;;;;;;;11.40;52.19;101022.91;5022474;28;20604;-85
2023/05/03 01:45:47;;;;;;;2.47;1.40;;;;;;;11.26;51.94;101022.03;5005178;28;20216;-84
2023/05/03 01:48:16;;;;;;;2.37;1.60;;;;;;;11.15;52.31;101021.16;5017921;28;20212;-83
2023/05/03 01:50:45;;;;;;;2.53;1.60;;;;;;;11.18;52.14;101032.34;5017238;28;20204;-83
2023/05/03 01:53:14;;;;;;;2.67;1.60;;;;;;;11.19;52.23;101048.69;5015833;28;20218;-85
2023/05/03 01:55:44;;;;;;;3.70;1.73;;;;;;;11.19;52.08;101043.50;5003035;28;20234;-84
2023/05/03 01:58:15;;;;;;;2.27;1.60;;;;;;;11.21;52.24;101044.41;5015912;28;20234;-83
2023/05/03 02:00:46;;;;;;;3.20;1.70;;;;;;;11.25;51.72;101039.22;5009406;28;20199;-84
2023/05/03 02:03:17;;;;;;;3.47;1.60;;;;;;;11.07;51.77;101009.09;5022369;28;20203;-85
2023/05/03 02:05:48;;;;;;;3.50;1.80;;;;;;;11.27;51.60;101037.53;5012607;28;20207;-87
2023/05/03 02:08:16;;;;;;;3.17;1.60;;;;;;;11.28;52.19;101051.28;5021309;28;20246;-85
2023/05/03 02:10:48;;;;;;;3.60;1.90;;;;;;;11.29;52.18;101035.78;5004344;28;20637;-86
2023/05/03 02:13:17;;;;;;;2.67;1.63;;;;;;;11.24;52.85;101031.50;5003064;28;20230;-85
2023/05/03 02:15:45;;;;;;;2.70;1.70;;;;;;;11.29;53.34;101032.34;5015514;28;20223;-85
2023/05/03 02:18:17;;;;;;;3.20;2.13;;;;;;;11.30;53.36;101027.22;5004817;28;20207;-84
2023/05/03 02:20:47;;;;;;;2.33;1.80;;;;;;;11.33;54.04;101028.91;5001283;28;20266;-85
2023/05/03 02:23:15;;;;;;;3.57;2.20;;;;;;;11.30;54.03;101032.38;5019571;28;20207;-83
2023/05/03 02:25:43;;;;;;;9.83;2.33;;;;;;;11.25;54.70;101033.22;5013035;28;20235;-85
2023/05/03 02:28:14;;;;;;;2.90;2.10;;;;;;;11.20;54.91;101040.09;5005842;28;20726;-85
2023/05/03 02:30:42;;;;;;;3.87;2.10;;;;;;;11.17;55.62;101040.09;5022988;28;20693;-88
2023/05/03 02:33:12;;;;;;;4.43;2.53;;;;;;;11.07;55.71;101040.06;5006201;28;20291;-85
2023/05/03 02:35:40;;;;;;;3.50;2.17;;;;;;;11.04;55.67;101052.94;5009167;28;20247;-84
2023/05/03 02:38:17;;;;;;;4.80;2.57;;;;;;;11.04;56.42;101057.25;5020904;28;20203;-84
2023/05/03 02:40:45;;;;;;;5.30;2.37;;;;;;;10.97;56.47;101053.81;5009878;28;20194;-85
2023/05/03 02:43:15;;;;;;;7.43;2.40;;;;;;;10.91;56.38;101048.63;5021461;28;20600;-85
2023/05/03 02:45:44;;;;;;;2.77;2.20;;;;;;;11.00;56.66;101048.63;5002249;28;20659;-84
2023/05/03 02:48:15;;;;;;;3.73;2.40;;;;;;;11.01;56.53;101044.31;5003349;28;20204;-85
2023/05/03 02:50:43;;;;;;;5.67;2.20;;;;;;;11.03;56.46;101040.06;5008786;28;20203;-83
2023/05/03 02:53:12;;;;;;;5.43;2.33;;;;;;;11.07;56.18;101055.53;5009343;28;20208;-85
2023/05/03 02:55:41;;;;;;;4.27;2.23;;;;;;;11.03;56.05;101047.78;5015250;28;20236;-85
2023/05/03 02:58:10;;;;;;;5.30;2.40;;;;;;;10.92;55.96;101034.84;5013952;28;20206;-85
2023/05/03 03:00:43;;;;;;;5.77;2.50;;;;;;;11.07;55.99;101055.53;5018290;28;20207;-86
2023/05/03 03:03:11;;;;;;;5.60;2.80;;;;;;;11.05;56.33;101044.38;5001975;28;20673;-85
2023/05/03 03:05:40;;;;;;;3.53;2.67;;;;;;;10.96;56.07;101039.16;5005486;28;20218;-85
2023/05/03 03:08:09;;;;;;;6.97;3.10;;;;;;;11.02;55.47;101058.97;5022554;28;20203;-85
2023/05/03 03:10:38;;;;;;;4.90;2.40;;;;;;;11.02;56.00;101057.25;5005646;28;20587;-85
2023/05/03 03:13:07;;;;;;;6.17;2.40;;;;;;;11.04;55.59;101065.81;5002426;28;20272;-83
2023/05/03 03:15:35;;;;;;;5.53;2.20;;;;;;;11.00;55.39;101055.50;5002603;28;20211;-85
2023/05/03 03:18:07;;;;;;;3.63;2.20;;;;;;;11.00;55.30;101058.94;5019742;28;20264;-86
2023/05/03 03:20:38;;;;;;;2.50;2.17;;;;;;;10.99;54.97;101064.13;5002561;28;20234;-83
2023/05/03 03:23:07;;;;;;;3.50;2.07;;;;;;;11.02;55.24;101067.56;5017844;28;20204;-84
2023/05/03 03:25:41;;;;;;;4.97;2.30;;;;;;;10.96;55.46;101067.53;5012636;28;20208;-85
2023/05/03 03:28:09;;;;;;;2.80;2.10;;;;;;;10.93;55.30;101061.50;5018076;28;20214;-83
2023/05/03 03:30:40;;;;;;;4.60;2.47;;;;;;;11.06;55.30;101078.75;5012644;28;20295;-84
2023/05/03 03:33:10;;;;;;;6.00;2.33;;;;;;;10.98;55.24;101065.84;5006624;28;20208;-86
2023/05/03 03:35:39;;;;;;;6.17;2.27;;;;;;;10.98;55.90;101075.28;5013372;28;20202;-84
2023/05/03 03:38:09;;;;;;;4.80;2.60;;;;;;;10.99;55.98;101085.59;5016470;28;20207;-86
2023/05/03 03:40:40;;;;;;;5.00;2.30;;;;;;;10.98;55.94;101089.03;5003395;28;20613;-85
2023/05/03 03:43:09;;;;;;;5.20;2.30;;;;;;;10.89;55.73;101065.78;5002349;28;20211;-84
2023/05/03 03:45:37;;;;;;;5.27;2.33;;;;;;;10.81;55.73;101060.59;5002397;28;20766;-83
2023/05/03 03:48:06;;;;;;;4.57;2.33;;;;;;;10.82;55.67;101074.34;5015106;28;20658;-86
2023/05/03 03:50:37;;;;;;;2.87;2.00;;;;;;;10.83;55.33;101096.72;5017048;28;20211;-85
2023/05/03 03:53:08;;;;;;;2.50;1.77;;;;;;;10.76;55.24;101094.97;5015156;28;20293;-84
2023/05/03 03:55:47;;;;;;;3.70;2.20;;;;;;;10.64;55.35;101083.75;5021971;28;20199;-86
2023/05/03 03:58:15;;;;;;;4.23;1.60;;;;;;;10.58;55.29;101083.72;5022526;28;20199;-85
2023/05/03 04:00:48;;;;;;;4.80;2.30;;;;;;;10.64;54.84;101101.78;5022822;28;20195;-85
2023/05/03 04:03:17;;;;;;;3.03;1.80;;;;;;;10.65;53.56;101115.53;5011171;28;20216;-85
2023/05/03 04:05:47;;;;;;;2.27;1.60;;;;;;;10.38;53.54;101098.19;5019083;28;20184;-84
2023/05/03 04:08:15;;;;;;;3.57;1.83;;;;;;;10.45;53.17;101115.41;5020586;28;20199;-85
2023/05/03 04:10:48;;;;;;;1.97;1.67;;;;;;;10.40;53.24;101115.38;5021228;28;20317;-85
2023/05/03 04:13:16;;;;;;;2.70;1.80;;;;;;;10.45;53.21;101135.16;5011831;28;20251;-86
2023/05/03 04:15:50;;;;;;;2.83;1.93;;;;;;;10.48;53.28;101133.47;5018338;28;20724;-86
2023/05/03 04:18:19;;;;;;;2.60;1.83;;;;;;;10.55;53.99;101144.69;5015470;28;20668;-87
2023/05/03 04:20:54;;;;;;;4.13;1.97;;;;;;;10.44;54.12;101121.41;5000934;28;20262;-87
2023/05/03 04:23:23;;;;;;;2.30;2.00;;;;;;;10.47;53.61;101121.44;5014974;28;20207;-85
2023/05/03 04:25:51;;;;;;;4.63;2.40;;;;;;;10.48;54.38;101123.16;5000984;28;20670;-85
2023/05/03 04:28:20;;;;;;;3.13;2.00;;;;;;;10.64;54.39;101143.03;5014438;28;20686;-85
2023/05/03 04:30:49;;;;;;;2.03;1.70;;;;;;;10.72;53.31;101139.63;4999104;28;20200;-85
2023/05/03 04:33:18;;;;;;;3.63;2.00;;;;;;;10.77;53.61;101148.25;5014286;28;20204;-85
2023/05/03 04:35:51;;;;;;;2.20;1.90;;;;;;;10.71;53.69;101137.88;5002057;28;20237;-85
2023/05/03 04:38:21;;;;;;;3.33;1.67;;;;;;;10.71;54.00;101137.88;5002894;28;20203;-85
2023/05/03 04:40:49;;;;;;;3.13;2.20;;;;;;;10.68;53.32;101137.88;5002031;28;20214;-86
2023/05/03 04:43:17;;;;;;;3.17;2.10;;;;;;;10.83;53.51;101159.47;5003149;28;20208;-83
2023/05/03 04:45:46;;;;;;;4.33;2.10;;;;;;;10.85;53.46;101146.56;5002961;28;20199;-85
2023/05/03 04:48:17;;;;;;;4.47;2.37;;;;;;;11.03;53.48;101154.38;5016008;28;20647;-85
2023/05/03 04:50:46;;;;;;;4.27;2.33;;;;;;;11.18;52.81;101156.16;5002793;28;20211;-86
2023/05/03 04:53:17;;;;;;;3.77;2.23;;;;;;;11.25;51.98;101141.56;5014745;28;20215;-86
2023/05/03 04:55:46;;;;;;;3.13;2.10;;;;;;;11.23;51.55;101143.28;5008628;28;20222;-85
2023/05/03 04:58:16;;;;;;;3.40;1.93;;;;;;;11.15;50.74;101160.44;5022247;28;20243;-85
2023/05/03 05:00:46;;;;;;;8.40;2.43;;;;;;;10.96;50.89;101175.84;5015073;28;20215;-82
2023/05/03 05:03:15;;;;;;;3.37;1.90;;;;;;;10.97;51.83;101167.28;4996399;28;20204;-82
2023/05/03 05:05:43;;;;;;;2.20;1.80;;;;;;;11.25;50.91;101168.22;5004529;28;20231;-81
2023/05/03 05:08:12;;;;;;;2.47;1.90;;;;;;;11.69;50.47;101175.25;5015456;28;20239;-81
2023/05/03 05:10:45;;;;;;;2.47;1.40;;;;;;;12.20;49.21;101177.91;5015152;28;20247;-81
2023/05/03 05:13:14;;;;;;;3.83;2.10;;;;;;;12.57;47.57;101165.81;5006230;28;20199;-81
2023/05/03 05:15:50;;;;;;;3.20;1.80;;;;;;;13.37;46.37;101171.63;4996609;28;20212;-82
2023/05/03 05:18:19;;;;;;;1.90;1.60;;;;;;;14.56;43.82;101166.44;5000255;28;20294;-81
2023/05/03 05:20:48;;;;;;;2.17;1.80;;;;;;;15.93;40.68;101154.28;5012514;28;20571;-81
2023/05/03 05:23:16;;;;;;;2.10;1.80;;;;;;;17.63;37.05;101173.63;5006034;28;20211;-82
2023/05/03 05:25:48;;;;;;;1.80;1.60;;;;;;;18.97;34.30;101173.78;5009771;28;20205;-82
2023/05/03 05:28:17;;;;;;;3.85;1.63;;;;;;;19.72;32.08;101154.09;5017511;28;20582;-82
2023/05/03 05:30:45;;;;;;;2.97;1.52;;;;;;;20.00;30.95;101158.47;5019558;28;20207;-81
2023/05/03 05:33:14;;;;;;;4.28;1.40;;;;;;;20.32;30.24;101165.22;5004390;28;20204;-83
2023/05/03 05:35:47;;;;;;;3.55;1.50;;;;;;;20.80;29.21;101160.97;5000012;28;20227;-81
2023/05/03 05:38:17;;;;;;;2.42;1.50;;;;;;;21.55;28.19;101177.38;5013933;28;20255;-84
2023/05/03 05:40:47;;;;;;;2.22;1.40;;;;;;;22.59;26.80;101156.50;4999682;28;20215;-83
2023/05/03 05:43:15;;;;;;;3.05;1.73;;;;;;;23.87;25.09;101141.81;5014718;28;20670;-82
2023/05/03 05:45:44;;;;;;;1.92;1.33;;;;;;;25.04;23.67;101165.66;5011317;28;20706;-82
2023/05/03 05:48:13;;;;;;;1.77;1.35;;;;;;;26.14;21.87;101162.13;5012981;28;20203;-82
2023/05/03 05:50:41;;;;;;;2.30;1.50;;;;;;;26.93;20.64;101168.84;4985349;28;20315;-83
2023/05/03 05:53:10;;;;;;;2.40;1.60;;;;;;;27.75;19.59;101168.03;4999502;28;20548;-81
2023/05/03 05:55:38;;;;;;;1.58;1.30;;;;;;;28.38;18.46;101169.16;4998991;28;20612;-82
2023/05/03 05:58:08;;;;;;;1.48;1.00;;;;;;;28.94;17.06;101169.66;4997889;28;20254;-83
2023/05/03 06:00:38;;;;;;;1.35;1.25;;;;;;;29.05;16.34;101172.44;5016293;28;20254;-81
2023/05/03 06:03:07;;;;;;;1.77;1.17;;;;;;;28.87;16.15;101171.06;5007787;28;20217;-81
2023/05/03 06:05:35;;;;;;;1.25;1.15;;;;;;;29.07;16.01;101173.16;5007571;28;20201;-83
2023/05/03 06:08:05;;;;;;;1.00;0.90;;;;;;;29.09;15.98;101170.44;5008687;28;20553;-83
2023/05/03 06:10:39;;;;;;;1.95;1.27;;;;;;;29.37;15.68;101178.06;5012269;28;20658;-82
2023/05/03 06:13:09;;;;;;;1.08;1.00;;;;;;;29.83;15.27;101182.72;5007888;28;20209;-83
2023/05/03 06:15:38;;;;;;;1.77;1.20;;;;;;;30.28;14.31;101182.03;5018865;28;20295;-82
2023/05/03 06:18:07;;;;;;;3.30;1.20;;;;;;;30.36;14.98;101192.09;5014189;28;20587;-83
2023/05/03 06:20:35;;;;;;;2.47;0.80;;;;;;;30.33;13.68;101188.69;4998465;28;20220;-83
2023/05/03 06:23:04;;;;;;;2.25;1.08;;;;;;;30.30;12.91;101196.03;5014721;28;20211;-79
2023/05/03 06:25:32;;;;;;;1.80;0.90;;;;;;;30.68;13.36;101192.25;5009423;28;20208;-81
2023/05/03 06:28:02;;;;;;;2.88;0.95;;;;;;;30.97;12.60;101196.19;5013660;28;20207;-81
2023/05/03 06:30:38;;;;;;;2.22;1.00;;;;;;;31.06;12.37;101191.91;5017023;28;20207;-81
2023/05/03 06:33:09;;;;;;;1.35;0.90;;;;;;;31.11;12.85;101200.38;5004932;28;20203;-82
2023/05/03 06:35:38;;;;;;;1.10;1.00;;;;;;;31.26;12.58;101199.19;4998109;28;20219;-81
2023/05/03 06:38:06;;;;;;;1.15;0.80;;;;;;;31.36;11.90;101203.78;4998606;28;20235;-83
2023/05/03 06:40:35;;;;;;;1.00;0.80;;;;;;;31.37;12.28;101200.13;5016718;28;20246;-84
2023/05/03 06:43:06;;;;;;;1.42;1.00;;;;;;;30.96;12.36;101198.94;5016350;28;20199;-83
2023/05/03 06:45:39;;;;;;;2.10;0.93;;;;;;;30.30;12.96;101190.72;4983728;28;20651;-82
2023/05/03 06:48:08;;;;;;;2.17;1.10;;;;;;;30.38;13.29;101201.66;4997206;28;20200;-81
2023/05/03 06:50:37;;;;;;;1.35;0.85;;;;;;;30.60;12.83;101200.84;5016320;28;20215;-80
2023/05/03 06:53:05;;;;;;;0.90;0.90;;;;;;;30.55;12.72;101195.84;5017823;28;20293;-81
2023/05/03 06:55:34;;;;;;;1.77;1.00;;;;;;;30.85;12.87;101210.44;5013024;28;20234;-82
2023/05/03 06:58:10;;;;;;;1.48;1.00;;;;;;;31.26;12.03;101203.63;5008871;28;20235;-80
2023/05/03 07:00:40;;;;;;;1.17;0.98;;;;;;;31.18;11.89;101206.06;5004289;28;20211;-83
2023/05/03 07:03:08;;;;;;;0.90;0.90;;;;;;;31.58;12.18;101206.38;5017285;28;20207;-81
2023/05/03 07:05:37;;;;;;;1.08;0.90;;;;;;;32.10;12.13;101199.44;5007920;28;20203;-82
2023/05/03 07:08:08;;;;;;;1.98;1.10;;;;;;;31.68;11.12;101210.00;5016419;28;20207;-81
2023/05/03 07:10:37;;;;;;;3.38;1.17;;;;;;;31.16;11.89;101211.53;5001926;28;20239;-81
2023/05/03 07:13:06;;;;;;;2.75;1.25;;;;;;;30.78;11.92;101212.75;5008238;28;20203;-83
2023/05/03 07:15:37;;;;;;;1.67;1.02;;;;;;;29.66;12.73;101214.97;5011614;28;20195;-82
2023/05/03 07:18:07;;;;;;;1.50;0.90;;;;;;;27.87;14.04;101214.94;4996731;28;20282;-82
2023/05/03 07:20:36;;;;;;;1.77;1.13;;;;;;;27.08;14.89;101204.91;5006760;28;20211;-82
2023/05/03 07:23:06;;;;;;;1.45;0.90;;;;;;;27.50;14.90;101215.56;5016170;28;20203;-82
2023/05/03 07:25:38;;;;;;;1.67;1.05;;;;;;;28.26;14.66;101218.53;5006465;28;20582;-83
2023/05/03 07:28:07;;;;;;;1.77;1.10;;;;;;;28.89;14.53;101208.94;5011815;28;20728;-83
2023/05/03 07:30:36;;;;;;;2.92;1.10;;;;;;;29.12;13.68;101199.38;5016052;28;20683;-83
2023/05/03 07:33:05;;;;;;;3.20;1.33;;;;;;;29.15;13.46;101203.63;5002003;28;20624;-84
2023/05/03 07:35:34;;;;;;;2.10;1.20;;;;;;;28.55;13.31;101223.69;5007863;28;20219;-83
2023/05/03 07:38:03;;;;;;;2.35;0.90;;;;;;;27.67;14.30;101220.63;4996156;28;20223;-83
2023/05/03 07:40:36;;;;;;;1.75;1.00;;;;;;;26.68;15.05;101238.22;4989303;28;20585;-82
2023/05/03 07:43:05;;;;;;;1.10;1.00;;;;;;;26.65;15.65;101222.56;5014504;28;20581;-81
2023/05/03 07:45:33;;;;;;;1.63;1.00;;;;;;;26.53;14.87;101231.22;5014584;28;20207;-82
2023/05/03 07:48:02;;;;;;;1.42;1.10;;;;;;;26.43;15.53;101228.22;5002988;28;20663;-81
2023/05/03 07:50:35;;;;;;;3.45;0.98;;;;;;;27.14;15.64;101225.75;5014479;28;20597;-82
2023/05/03 07:53:03;;;;;;;1.42;1.00;;;;;;;27.99;14.60;101223.88;5015677;28;20199;-81
2023/05/03 07:55:35;;;;;;;1.38;1.10;;;;;;;26.72;15.02;101223.88;5001231;28;20203;-83
2023/05/03 07:58:03;;;;;;;3.22;1.20;;;;;;;25.03;17.06;101216.66;5014936;28;20574;-82
2023/05/03 08:00:32;;;;;;;1.42;1.08;;;;;;;25.18;17.41;101228.22;4997558;28;20208;-82
2023/05/03 08:03:03;;;;;;;1.75;1.13;;;;;;;25.21;17.33;101213.06;4995328;28;20247;-82
2023/05/03 08:05:35;;;;;;;1.67;1.50;;;;;;;23.87;18.33;101241.84;5001365;28;20222;-83
2023/05/03 08:08:04;;;;;;;1.77;1.40;;;;;;;22.25;20.46;101235.88;5013730;28;20239;-82
2023/05/03 08:10:36;;;;;;;1.30;1.20;;;;;;;21.54;21.59;101243.88;4999150;28;20675;-83
2023/05/03 08:13:05;;;;;;;3.22;1.27;;;;;;;21.48;21.98;101238.84;5012824;28;20576;-81
2023/05/03 08:15:34;;;;;;;3.13;1.58;;;;;;;22.02;21.88;101235.00;5013973;28;20222;-82
2023/05/03 08:18:05;;;;;;;3.53;1.45;;;;;;;22.87;20.76;101229.72;5006545;28;20204;-83
2023/05/03 08:20:36;;;;;;;1.75;1.20;;;;;;;23.34;19.96;101219.72;5003558;28;20239;-81
2023/05/03 08:23:05;;;;;;;2.03;1.40;;;;;;;23.71;19.98;101223.28;5014189;28;20238;-82
2023/05/03 08:25:33;;;;;;;1.23;1.13;;;;;;;23.50;19.99;101238.28;5013263;28;20618;-82
2023/05/03 08:28:03;;;;;;;2.53;1.30;;;;;;;23.06;20.55;101206.13;5011671;28;20230;-82
2023/05/03 08:30:32;;;;;;;1.75;1.20;;;;;;;22.46;20.78;101223.59;4994431;28;20219;-82
2023/05/03 08:33:01;;;;;;;3.53;1.50;;;;;;;21.37;22.06;101226.13;4995109;28;20231;-82
2023/05/03 08:35:32;;;;;;;3.22;1.50;;;;;;;20.58;23.42;101235.03;5007270;28;20208;-82
2023/05/03 08:38:01;;;;;;;2.40;1.38;;;;;;;19.82;24.16;101235.75;5007222;28;20257;-81
2023/05/03 08:40:32;;;;;;;2.88;1.70;;;;;;;19.04;25.54;101222.34;5013223;28;20219;-82
2023/05/03 08:43:08;;;;;;;2.92;1.55;;;;;;;18.74;26.44;101240.56;5013984;28;20550;-84
2023/05/03 08:45:36;;;;;;;2.47;1.52;;;;;;;18.23;26.63;101233.09;4994343;28;20204;-82
2023/05/03 08:48:07;;;;;;;2.55;1.65;;;;;;;18.07;27.29;101250.00;4994590;28;20210;-83
2023/05/03 08:50:40;;;;;;;1.90;1.38;;;;;;;17.89;26.60;101250.41;5000178;28;20598;-81
2023/05/03 08:53:11;;;;;;;1.55;1.40;;;;;;;17.71;26.66;101246.44;5014511;28;20202;-81
2023/05/03 08:55:45;;;;;;;2.30;1.58;;;;;;;17.52;27.90;101232.94;5012777;28;20574;-81
2023/05/03 08:58:15;;;;;;;1.85;1.48;;;;;;;17.15;28.13;101259.75;5011033;28;20654;-83
2023/05/03 09:00:43;;;;;;;3.70;1.83;;;;;;;16.46;28.46;101260.97;5013457;28;20224;-83
2023/05/03 09:03:12;;;;;;;2.10;1.58;;;;;;;16.22;30.04;101257.00;5009806;28;20222;-82
2023/05/03 09:05:43;;;;;;;3.00;1.83;;;;;;;16.40;29.90;101256.69;5000858;28;20609;-81
2023/05/03 09:08:14;;;;;;;1.70;1.60;;;;;;;16.56;30.61;101246.88;4999543;28;20227;-82
2023/05/03 09:10:43;;;;;;;3.10;1.70;;;;;;;16.75;30.24;101239.66;5015125;28;20748;-83
2023/05/03 09:13:14;;;;;;;3.63;2.00;;;;;;;16.54;30.74;101246.06;5017774;28;20211;-83
2023/05/03 09:15:45;;;;;;;3.97;2.20;;;;;;;16.81;30.58;101265.56;5019669;28;20211;-86
2023/05/03 09:18:16;;;;;;;2.90;2.20;;;;;;;17.37;29.40;101261.03;5016108;28;20706;-89
2023/05/03 09:20:50;;;;;;;3.03;2.22;;;;;;;18.25;27.96;101259.16;5002424;28;20224;-85
2023/05/03 09:23:30;;;;;;;4.13;1.80;;;;;;;19.13;26.22;101231.66;5020444;28;20297;-85
2023/05/03 09:25:59;;;;;;;2.58;1.80;;;;;;;18.88;25.76;101252.38;5009324;28;20204;-86
2023/05/03 09:28:28;;;;;;;2.92;1.88;;;;;;;17.72;26.54;101256.84;5007506;28;20219;-87
2023/05/03 09:31:06;;;;;;;2.20;1.48;;;;;;;16.83;28.34;101258.63;5007727;28;20223;-87
2023/05/03 09:33:38;;;;;;;2.78;1.50;;;;;;;17.18;28.19;101267.50;4995361;28;20253;-86
2023/05/03 09:36:07;;;;;;;4.43;1.55;;;;;;;18.65;26.45;101255.56;5019639;28;20210;-86
2023/05/03 09:38:39;;;;;;;1.48;1.38;;;;;;;20.31;24.29;101252.50;5019686;28;20223;-84
2023/05/03 09:41:08;;;;;;;4.35;1.90;;;;;;;21.74;22.81;101244.88;5019635;28;20598;-85
2023/05/03 09:43:51;;;;;;;1.27;1.17;;;;;;;23.31;20.97;101247.94;5021114;28;20195;-86
2023/05/03 09:46:20;;;;;;;1.95;1.30;;;;;;;23.25;19.02;101235.06;5020481;28;20208;-85
2023/05/03 09:48:55;;;;;;;2.00;1.27;;;;;;;23.28;19.70;101251.56;5006650;28;20655;-85
2023/05/03 09:51:24;;;;;;;1.83;1.08;;;;;;;23.91;18.98;101246.03;5020787;28;20570;-88
2023/05/03 09:53:57;;;;;;;1.73;1.20;;;;;;;24.56;17.61;101230.56;5015248;28;20216;-85
2023/05/03 09:56:32;;;;;;;1.58;1.05;;;;;;;25.62;16.81;101253.97;5000001;28;20258;-84
2023/05/03 09:59:02;;;;;;;1.35;1.00;;;;;;;26.58;16.69;101226.50;5004334;28;20230;-86
2023/05/03 10:01:37;;;;;;;1.38;0.80;;;;;;;27.38;15.66;101202.16;5007300;28;20206;-86
2023/05/03 10:04:25;;;;;;;1.67;1.02;;;;;;;27.68;14.84;101209.06;4999443;28;20212;-86
2023/05/03 10:07:00;;;;;;;1.17;1.08;;;;;;;27.61;15.15;101250.13;4993199;28;20262;-89
2023/05/03 10:09:38;;;;;;;1.60;1.20;;;;;;;27.77;15.29;101235.00;4994711;28;20219;-85
2023/05/03 10:12:11;;;;;;;1.67;1.20;;;;;;;28.18;14.60;101234.09;5021257;28;20239;-86
2023/05/03 10:14:44;;;;;;;1.63;1.10;;;;;;;28.29;14.49;101234.22;5014390;28;20212;-86
2023/05/03 10:17:17;;;;;;;1.42;1.00;;;;;;;28.05;15.16;101227.91;5001737;28;20222;-84
2023/05/03 10:19:55;;;;;;;1.65;1.10;;;;;;;28.11;15.21;101216.91;5004494;28;20251;-86
2023/05/03 10:22:29;;;;;;;1.48;1.05;;;;;;;28.33;14.53;101238.38;5003055;28;20208;-86
2023/05/03 10:25:11;;;;;;;2.25;0.93;;;;;;;28.15;14.51;101227.19;5002705;28;20577;-85
2023/05/03 10:27:58;;;;;;;3.00;1.05;;;;;;;27.77;14.49;101232.38;5003827;28;20204;-86
2023/05/03 10:30:31;;;;;;;2.00;1.40;;;;;;;25.28;16.40;101237.34;4991381;28;20204;-86
2023/05/03 10:33:20;;;;;;;1.98;1.10;;;;;;;23.95;17.63;101247.59;4991037;28;20197;-86
2023/05/03 10:35:52;;;;;;;1.55;1.13;;;;;;;24.30;17.89;101242.34;5003353;28;20257;-87
2023/05/03 10:38:27;;;;;;;2.08;1.42;;;;;;;24.73;17.68;101224.41;5002312;28;20271;-86
2023/05/03 10:41:02;;;;;;;2.10;1.20;;;;;;;25.47;16.85;101243.31;5001544;28;20318;-86
2023/05/03 10:43:45;;;;;;;2.30;1.38;;;;;;;26.23;16.13;101224.97;5014611;28;20208;-86
2023/05/03 10:46:35;;;;;;;1.35;1.20;;;;;;;26.46;15.66;101223.66;5013850;28;20199;-88
2023/05/03 10:49:19;;;;;;;1.85;1.27;;;;;;;24.04;17.54;101236.63;4990718;28;20291;-86
2023/05/03 10:51:48;;;;;;;2.15;1.30;;;;;;;23.34;19.26;101250.41;5016952;28;20237;-85
2023/05/03 10:54:18;;;;;;;1.77;1.17;;;;;;;23.78;18.82;101240.47;5010663;28;20215;-87
2023/05/03 10:56:53;;;;;;;1.25;1.15;;;;;;;24.88;18.01;101239.44;5007057;28;20222;-86
2023/05/03 10:59:23;;;;;;;2.15;1.35;;;;;;;25.83;17.01;101242.25;5013503;28;20223;-86
2023/05/03 11:01:53;;;;;;;1.33;1.23;;;;;;;26.30;16.65;101236.03;5000292;28;20227;-87
2023/05/03 11:04:32;;;;;;;2.35;1.45;;;;;;;26.75;16.31;101244.84;5006600;28;20199;-87
2023/05/03 11:07:01;;;;;;;1.77;1.17;;;;;;;26.80;15.88;101215.47;5015443;28;20207;-87
2023/05/03 11:09:33;;;;;;;1.67;1.15;;;;;;;26.44;15.43;101236.09;5013838;28;20602;-85
2023/05/03 11:12:09;;;;;;;1.95;1.20;;;;;;;24.42;17.43;101235.69;5000884;28;20322;-87
2023/05/03 11:14:43;;;;;;;1.73;1.50;;;;;;;22.62;18.79;101250.94;5009071;28;20225;-87
2023/05/03 11:17:15;;;;;;;2.70;1.35;;;;;;;21.15;20.64;101260.13;5005659;28;20274;-88
2023/05/03 11:19:46;;;;;;;1.77;1.35;;;;;;;19.95;22.39;101267.59;5006539;28;20215;-87
2023/05/03 11:22:16;;;;;;;1.48;1.25;;;;;;;19.10;23.33;101257.88;5009957;28;20204;-86
2023/05/03 11:24:45;;;;;;;4.63;1.75;;;;;;;19.76;23.59;101260.31;4998076;28;20208;-85
2023/05/03 11:27:30;;;;;;;1.83;1.65;;;;;;;20.82;22.23;101227.25;5008322;28;20231;-88
2023/05/03 11:30:00;;;;;;;1.67;1.38;;;;;;;21.22;21.26;101238.03;5015740;28;20212;-88
2023/05/03 11:32:29;;;;;;;3.95;1.42;;;;;;;20.63;21.43;101258.47;5003370;28;20215;-87
2023/05/03 11:35:01;;;;;;;2.75;1.52;;;;;;;20.14;22.63;101260.91;5012298;28;20217;-86
2023/05/03 11:37:31;;;;;;;2.20;1.38;;;;;;;19.60;23.23;101219.84;5007314;28;20211;-86
2023/05/03 11:40:00;;;;;;;4.25;1.65;;;;;;;19.70;23.44;101263.16;5020557;28;20211;-86
2023/05/03 11:42:34;;;;;;;2.25;1.30;;;;;;;19.74;22.74;101269.13;5014078;28;20258;-87